sensor_id;sensor_type;location;lat;lon;timestamp;pressure;altitude;pressure_sealevel;temperature;humidity
19811;BME280;10065;49.632;8.346;2022-09-02T00:02:22;100619.53;;;21.54;53.77
19811;BME280;10065;49.632;8.346;2022-09-02T00:04:50;100622.03;;;21.49;53.42
19811;BME280;10065;49.632;8.346;2022-09-02T00:07:18;100617.88;;;21.46;53.65
19811;BME280;10065;49.632;8.346;2022-09-02T00:09:46;100618.72;;;21.47;53.66
19811;BME280;10065;49.632;8.346;2022-09-02T00:12:14;100625.59;;;21.43;53.73
19811;BME280;10065;49.632;8.346;2022-09-02T00:14:43;100620.81;;;21.45;53.95
19811;BME280;10065;49.632;8.346;2022-09-02T00:17:11;100620.00;;;21.44;53.98
19811;BME280;10065;49.632;8.346;2022-09-02T00:19:39;100612.72;;;21.45;53.81
19811;BME280;10065;49.632;8.346;2022-09-02T00:22:07;100617.91;;;21.39;53.82
19811;BME280;10065;49.632;8.346;2022-09-02T00:24:34;100623.56;;;21.31;53.79
19811;BME280;10065;49.632;8.346;2022-09-02T00:27:03;100621.31;;;21.22;54.10
19811;BME280;10065;49.632;8.346;2022-09-02T00:29:31;100616.13;;;21.20;54.32
19811;BME280;10065;49.632;8.346;2022-09-02T00:32:00;100616.75;;;21.16;54.51
19811;BME280;10065;49.632;8.346;2022-09-02T00:34:28;100613.88;;;21.17;54.43
19811;BME280;10065;49.632;8.346;2022-09-02T00:36:55;100618.41;;;21.17;54.69
19811;BME280;10065;49.632;8.346;2022-09-02T00:39:23;100607.00;;;21.15;54.44
19811;BME280;10065;49.632;8.346;2022-09-02T00:41:51;100611.41;;;21.09;54.84
19811;BME280;10065;49.632;8.346;2022-09-02T00:44:20;100612.22;;;21.10;54.74
19811;BME280;10065;49.632;8.346;2022-09-02T00:46:48;100606.00;;;21.09;54.49
19811;BME280;10065;49.632;8.346;2022-09-02T00:49:20;100602.06;;;21.05;54.13
19811;BME280;10065;49.632;8.346;2022-09-02T00:51:53;100609.78;;;21.01;54.27
19811;BME280;10065;49.632;8.346;2022-09-02T00:54:23;100596.50;;;21.00;54.37
19811;BME280;10065;49.632;8.346;2022-09-02T00:56:52;100595.66;;;20.99;53.94
19811;BME280;10065;49.632;8.346;2022-09-02T00:59:26;100600.84;;;20.94;54.01
19811;BME280;10065;49.632;8.346;2022-09-02T01:01:55;100602.34;;;20.90;54.11
19811;BME280;10065;49.632;8.346;2022-09-02T01:04:25;100606.28;;;20.88;54.69
19811;BME280;10065;49.632;8.346;2022-09-02T01:06:52;100597.59;;;20.79;54.64
19811;BME280;10065;49.632;8.346;2022-09-02T01:09:20;100600.31;;;20.73;54.65
19811;BME280;10065;49.632;8.346;2022-09-02T01:11:49;100604.03;;;20.72;54.80
19811;BME280;10065;49.632;8.346;2022-09-02T01:14:21;100600.53;;;20.71;54.95
19811;BME280;10065;49.632;8.346;2022-09-02T01:16:56;100592.44;;;20.71;54.20
19811;BME280;10065;49.632;8.346;2022-09-02T01:19:31;100593.47;;;20.70;54.49
19811;BME280;10065;49.632;8.346;2022-09-02T01:22:01;100595.97;;;20.65;54.23
19811;BME280;10065;49.632;8.346;2022-09-02T01:24:32;100601.38;;;20.65;53.85
19811;BME280;10065;49.632;8.346;2022-09-02T01:27:01;100606.34;;;20.55;54.44
19811;BME280;10065;49.632;8.346;2022-09-02T01:29:29;100600.31;;;20.59;54.04
19811;BME280;10065;49.632;8.346;2022-09-02T01:31:57;100601.59;;;20.50;54.64
19811;BME280;10065;49.632;8.346;2022-09-02T01:34:25;100596.44;;;20.49;54.81
19811;BME280;10065;49.632;8.346;2022-09-02T01:36:54;100597.88;;;20.45;54.76
19811;BME280;10065;49.632;8.346;2022-09-02T01:39:23;100594.97;;;20.46;54.38
19811;BME280;10065;49.632;8.346;2022-09-02T01:41:51;100595.19;;;20.45;54.06
19811;BME280;10065;49.632;8.346;2022-09-02T01:44:19;100597.25;;;20.43;54.08
19811;BME280;10065;49.632;8.346;2022-09-02T01:46:47;100596.63;;;20.47;53.54
19811;BME280;10065;49.632;8.346;2022-09-02T01:49:14;100595.38;;;20.43;53.45
19811;BME280;10065;49.632;8.346;2022-09-02T01:51:42;100592.91;;;20.35;53.57
19811;BME280;10065;49.632;8.346;2022-09-02T01:54:11;100586.69;;;20.28;53.51
19811;BME280;10065;49.632;8.346;2022-09-02T01:56:42;100593.72;;;20.29;53.76
19811;BME280;10065;49.632;8.346;2022-09-02T01:59:10;100591.44;;;20.26;53.75
19811;BME280;10065;49.632;8.346;2022-09-02T02:01:43;100587.72;;;20.27;53.44
19811;BME280;10065;49.632;8.346;2022-09-02T02:04:12;100585.84;;;20.27;53.36
19811;BME280;10065;49.632;8.346;2022-09-02T02:06:40;100593.72;;;20.29;53.11
19811;BME280;10065;49.632;8.346;2022-09-02T02:09:10;100590.41;;;20.20;53.54
19811;BME280;10065;49.632;8.346;2022-09-02T02:11:38;100590.63;;;20.12;53.20
19811;BME280;10065;49.632;8.346;2022-09-02T02:14:08;100583.97;;;20.15;53.43
19811;BME280;10065;49.632;8.346;2022-09-02T02:16:36;100592.06;;;20.15;53.30
19811;BME280;10065;49.632;8.346;2022-09-02T02:19:04;100591.22;;;20.14;53.43
19811;BME280;10065;49.632;8.346;2022-09-02T02:21:32;100598.50;;;20.14;53.53
19811;BME280;10065;49.632;8.346;2022-09-02T02:24:00;100593.53;;;20.11;53.65
19811;BME280;10065;49.632;8.346;2022-09-02T02:26:28;100594.34;;;20.11;53.40
19811;BME280;10065;49.632;8.346;2022-09-02T02:28:56;100596.41;;;20.03;53.60
19811;BME280;10065;49.632;8.346;2022-09-02T02:31:25;100592.06;;;20.02;53.22
19811;BME280;10065;49.632;8.346;2022-09-02T02:33:53;100587.53;;;19.96;53.46
19811;BME280;10065;49.632;8.346;2022-09-02T02:36:21;100587.09;;;19.99;53.32
19811;BME280;10065;49.632;8.346;2022-09-02T02:38:49;100590.00;;;20.04;52.87
19811;BME280;10065;49.632;8.346;2022-09-02T02:41:17;100589.97;;;19.97;53.20
19811;BME280;10065;49.632;8.346;2022-09-02T02:43:44;100591.66;;;19.91;53.31
19811;BME280;10065;49.632;8.346;2022-09-02T02:46:13;100590.00;;;19.84;53.24
19811;BME280;10065;49.632;8.346;2022-09-02T02:48:43;100593.91;;;19.81;53.91
19811;BME280;10065;49.632;8.346;2022-09-02T02:51:11;100593.06;;;19.74;53.88
19811;BME280;10065;49.632;8.346;2022-09-02T02:53:39;100588.31;;;19.76;53.43
19811;BME280;10065;49.632;8.346;2022-09-02T02:56:07;100583.53;;;19.72;53.44
19811;BME280;10065;49.632;8.346;2022-09-02T02:58:35;100586.22;;;19.65;53.72
19811;BME280;10065;49.632;8.346;2022-09-02T03:01:03;100582.13;;;19.69;53.88
19811;BME280;10065;49.632;8.346;2022-09-02T03:03:31;100573.41;;;19.74;54.02
19811;BME280;10065;49.632;8.346;2022-09-02T03:06:00;100574.03;;;19.69;54.25
19811;BME280;10065;49.632;8.346;2022-09-02T03:08:28;100586.22;;;19.65;54.26
19811;BME280;10065;49.632;8.346;2022-09-02T03:10:56;100573.19;;;19.62;54.62
19811;BME280;10065;49.632;8.346;2022-09-02T03:13:25;100577.97;;;19.67;54.37
19811;BME280;10065;49.632;8.346;2022-09-02T03:15:57;100573.63;;;19.66;54.48
19811;BME280;10065;49.632;8.346;2022-09-02T03:18:25;100577.53;;;19.57;54.44
19811;BME280;10065;49.632;8.346;2022-09-02T03:20:53;100577.91;;;19.53;54.54
19811;BME280;10065;49.632;8.346;2022-09-02T03:23:22;100583.09;;;19.48;54.85
19811;BME280;10065;49.632;8.346;2022-09-02T03:25:50;100583.25;;;19.47;54.53
19811;BME280;10065;49.632;8.346;2022-09-02T03:28:18;100579.34;;;19.43;54.76
19811;BME280;10065;49.632;8.346;2022-09-02T03:30:46;100579.09;;;19.44;54.40
19811;BME280;10065;49.632;8.346;2022-09-02T03:33:14;100577.53;;;19.50;54.26
19811;BME280;10065;49.632;8.346;2022-09-02T03:35:43;100576.59;;;19.36;54.31
19811;BME280;10065;49.632;8.346;2022-09-02T03:38:12;100573.09;;;19.36;54.61
19811;BME280;10065;49.632;8.346;2022-09-02T03:40:41;100581.16;;;19.36;54.32
19811;BME280;10065;49.632;8.346;2022-09-02T03:43:10;100572.06;;;19.37;54.21
19811;BME280;10065;49.632;8.346;2022-09-02T03:45:38;100576.00;;;19.41;54.57
19811;BME280;10065;49.632;8.346;2022-09-02T03:48:11;100579.09;;;19.38;54.34
19811;BME280;10065;49.632;8.346;2022-09-02T03:50:42;100577.88;;;19.34;54.41
19811;BME280;10065;49.632;8.346;2022-09-02T03:53:12;100574.09;;;19.28;54.41
19811;BME280;10065;49.632;8.346;2022-09-02T03:55:47;100573.72;;;19.31;54.48
19811;BME280;10065;49.632;8.346;2022-09-02T03:58:16;100571.41;;;19.28;54.14
19811;BME280;10065;49.632;8.346;2022-09-02T04:00:49;100567.91;;;19.28;54.26
19811;BME280;10065;49.632;8.346;2022-09-02T04:03:17;100570.38;;;19.23;54.68
19811;BME280;10065;49.632;8.346;2022-09-02T04:05:46;100566.66;;;19.24;54.50
19811;BME280;10065;49.632;8.346;2022-09-02T04:08:13;100565.81;;;19.16;54.82
19811;BME280;10065;49.632;8.346;2022-09-02T04:10:41;100574.72;;;19.24;54.23
19811;BME280;10065;49.632;8.346;2022-09-02T04:13:11;100568.91;;;19.27;54.25
19811;BME280;10065;49.632;8.346;2022-09-02T04:15:39;100569.16;;;19.25;54.35
19811;BME280;10065;49.632;8.346;2022-09-02T04:21:32;100574.53;;;19.25;54.00
19811;BME280;10065;49.632;8.346;2022-09-02T04:24:01;100572.63;;;19.19;54.55
19811;BME280;10065;49.632;8.346;2022-09-02T04:26:29;100577.41;;;19.24;54.41
19811;BME280;10065;49.632;8.346;2022-09-02T04:28:58;100577.00;;;19.27;54.05
19811;BME280;10065;49.632;8.346;2022-09-02T04:31:27;100573.47;;;19.26;53.60
19811;BME280;10065;49.632;8.346;2022-09-02T04:33:57;100582.13;;;19.15;53.87
19811;BME280;10065;49.632;8.346;2022-09-02T04:36:26;100576.09;;;19.06;54.21
19811;BME280;10065;49.632;8.346;2022-09-02T04:38:56;100583.56;;;19.11;54.12
19811;BME280;10065;49.632;8.346;2022-09-02T04:41:28;100584.38;;;19.11;54.12
19811;BME280;10065;49.632;8.346;2022-09-02T04:43:58;100575.28;;;19.06;54.48
19811;BME280;10065;49.632;8.346;2022-09-02T04:46:26;100576.97;;;19.13;54.00
19811;BME280;10065;49.632;8.346;2022-09-02T04:49:00;100576.97;;;19.13;54.22
19811;BME280;10065;49.632;8.346;2022-09-02T04:51:29;100579.00;;;19.05;54.21
19811;BME280;10065;49.632;8.346;2022-09-02T04:53:57;100581.88;;;19.03;54.26
19811;BME280;10065;49.632;8.346;2022-09-02T04:56:26;100580.63;;;18.99;54.80
19811;BME280;10065;49.632;8.346;2022-09-02T04:58:54;100589.09;;;18.96;54.57
19811;BME280;10065;49.632;8.346;2022-09-02T05:01:25;100583.94;;;19.01;54.40
19811;BME280;10065;49.632;8.346;2022-09-02T05:03:54;100598.81;;;18.97;54.53
19811;BME280;10065;49.632;8.346;2022-09-02T05:06:24;100591.94;;;18.88;54.70
19811;BME280;10065;49.632;8.346;2022-09-02T05:08:53;100595.88;;;18.92;54.95
19811;BME280;10065;49.632;8.346;2022-09-02T05:11:23;100589.31;;;19.01;54.50
19811;BME280;10065;49.632;8.346;2022-09-02T05:13:55;100589.94;;;19.03;54.30
19811;BME280;10065;49.632;8.346;2022-09-02T05:16:27;100582.72;;;19.10;53.95
19811;BME280;10065;49.632;8.346;2022-09-02T05:18:55;100588.91;;;19.04;54.11
19811;BME280;10065;49.632;8.346;2022-09-02T05:21:24;100591.59;;;19.04;54.18
19811;BME280;10065;49.632;8.346;2022-09-02T05:23:52;100596.78;;;19.06;54.41
19811;BME280;10065;49.632;8.346;2022-09-02T05:26:20;100598.81;;;18.97;54.82
19811;BME280;10065;49.632;8.346;2022-09-02T05:28:48;100590.50;;;18.92;54.69
19811;BME280;10065;49.632;8.346;2022-09-02T05:31:18;100592.16;;;18.93;54.67
19811;BME280;10065;49.632;8.346;2022-09-02T05:33:48;100592.34;;;18.92;54.81
19811;BME280;10065;49.632;8.346;2022-09-02T05:36:18;100596.13;;;18.97;54.63
19811;BME280;10065;49.632;8.346;2022-09-02T05:38:47;100595.94;;;18.99;54.40
19811;BME280;10065;49.632;8.346;2022-09-02T05:41:18;100593.00;;;19.00;54.33
19811;BME280;10065;49.632;8.346;2022-09-02T05:43:49;100596.13;;;18.97;54.36
19811;BME280;10065;49.632;8.346;2022-09-02T05:46:19;100599.63;;;18.98;54.82
19811;BME280;10065;49.632;8.346;2022-09-02T05:48:51;100593.00;;;19.00;54.50
19811;BME280;10065;49.632;8.346;2022-09-02T05:51:40;100600.50;;;19.05;53.96
19811;BME280;10065;49.632;8.346;2022-09-02T05:54:09;100599.88;;;19.09;54.25
19811;BME280;10065;49.632;8.346;2022-09-02T05:56:38;100593.06;;;19.07;53.96
19811;BME280;10065;49.632;8.346;2022-09-02T05:59:11;100596.34;;;19.09;54.16
19811;BME280;10065;49.632;8.346;2022-09-02T06:01:39;100600.94;;;19.08;54.16
19811;BME280;10065;49.632;8.346;2022-09-02T06:04:08;100601.31;;;19.05;54.65
19811;BME280;10065;49.632;8.346;2022-09-02T06:06:36;100596.16;;;19.04;54.94
19811;BME280;10065;49.632;8.346;2022-09-02T06:09:05;100603.19;;;19.11;54.45
19811;BME280;10065;49.632;8.346;2022-09-02T06:11:34;100598.06;;;19.16;54.12
19811;BME280;10065;49.632;8.346;2022-09-02T06:14:05;100595.19;;;19.25;53.99
19811;BME280;10065;49.632;8.346;2022-09-02T06:16:34;100601.19;;;19.27;53.91
19811;BME280;10065;49.632;8.346;2022-09-02T06:19:03;100595.66;;;19.35;53.92
19811;BME280;10065;49.632;8.346;2022-09-02T06:21:34;100590.50;;;19.40;53.84
19811;BME280;10065;49.632;8.346;2022-09-02T06:24:03;100585.75;;;19.42;54.16
19811;BME280;10065;49.632;8.346;2022-09-02T06:26:31;100590.69;;;19.45;53.98
19811;BME280;10065;49.632;8.346;2022-09-02T06:28:59;100591.13;;;19.42;53.97
19811;BME280;10065;49.632;8.346;2022-09-02T06:31:27;100592.78;;;19.43;54.15
19811;BME280;10065;49.632;8.346;2022-09-02T06:34:00;100587.84;;;19.53;54.00
19811;BME280;10065;49.632;8.346;2022-09-02T06:36:30;100585.78;;;19.55;53.88
19811;BME280;10065;49.632;8.346;2022-09-02T06:38:59;100589.31;;;19.62;53.87
19811;BME280;10065;49.632;8.346;2022-09-02T06:41:29;100587.88;;;19.66;53.33
19811;BME280;10065;49.632;8.346;2022-09-02T06:44:00;100581.06;;;19.70;53.36
19811;BME280;10065;49.632;8.346;2022-09-02T06:46:31;100586.66;;;19.75;53.48
19811;BME280;10065;49.632;8.346;2022-09-02T06:48:59;100583.78;;;19.83;53.73
19811;BME280;10065;49.632;8.346;2022-09-02T06:51:29;100585.88;;;19.95;53.00
19811;BME280;10065;49.632;8.346;2022-09-02T06:53:59;100590.41;;;20.01;52.71
19811;BME280;10065;49.632;8.346;2022-09-02T06:56:27;100586.47;;;20.03;52.83
19811;BME280;10065;49.632;8.346;2022-09-02T06:58:55;100587.50;;;20.09;52.92
19811;BME280;10065;49.632;8.346;2022-09-02T07:01:25;100581.94;;;20.10;53.24
19811;BME280;10065;49.632;8.346;2022-09-02T07:03:53;100583.38;;;20.13;53.07
19811;BME280;10065;49.632;8.346;2022-09-02T07:06:41;100583.78;;;20.16;52.83
19811;BME280;10065;49.632;8.346;2022-09-02T07:09:12;100580.28;;;20.22;52.73
19811;BME280;10065;49.632;8.346;2022-09-02T07:11:41;100588.53;;;20.27;53.00
19811;BME280;10065;49.632;8.346;2022-09-02T07:14:13;100589.56;;;20.33;53.00
19811;BME280;10065;49.632;8.346;2022-09-02T07:16:43;100590.84;;;20.37;53.17
19811;BME280;10065;49.632;8.346;2022-09-02T07:19:12;100580.47;;;20.41;53.04
19811;BME280;10065;49.632;8.346;2022-09-02T07:21:46;100583.56;;;20.44;52.89
19811;BME280;10065;49.632;8.346;2022-09-02T07:24:16;100579.44;;;20.48;52.24
19811;BME280;10065;49.632;8.346;2022-09-02T07:26:44;100584.19;;;20.53;51.94
19811;BME280;10065;49.632;8.346;2022-09-02T07:29:12;100585.44;;;20.57;51.64
19811;BME280;10065;49.632;8.346;2022-09-02T07:31:42;100586.44;;;20.62;51.53
19811;BME280;10065;49.632;8.346;2022-09-02T07:34:10;100580.03;;;20.63;51.13
19811;BME280;10065;49.632;8.346;2022-09-02T07:36:40;100587.22;;;20.76;50.66
19811;BME280;10065;49.632;8.346;2022-09-02T07:39:09;100580.16;;;20.88;50.26
19811;BME280;10065;49.632;8.346;2022-09-02T07:41:43;100588.41;;;21.00;50.11
19811;BME280;10065;49.632;8.346;2022-09-02T07:44:12;100579.88;;;21.10;50.21
19811;BME280;10065;49.632;8.346;2022-09-02T07:46:40;100568.03;;;21.17;50.27
19811;BME280;10065;49.632;8.346;2022-09-02T07:49:12;100574.03;;;21.26;49.91
19811;BME280;10065;49.632;8.346;2022-09-02T07:51:43;100576.06;;;21.30;49.86
19811;BME280;10065;49.632;8.346;2022-09-02T07:54:16;100566.88;;;21.38;49.37
19811;BME280;10065;49.632;8.346;2022-09-02T07:56:45;100570.16;;;21.47;48.74
19811;BME280;10065;49.632;8.346;2022-09-02T07:59:15;100565.56;;;21.54;48.88
19811;BME280;10065;49.632;8.346;2022-09-02T08:01:44;100568.59;;;21.64;48.54
19811;BME280;10065;49.632;8.346;2022-09-02T08:04:14;100562.94;;;21.72;48.62
19811;BME280;10065;49.632;8.346;2022-09-02T08:06:44;100567.84;;;21.82;48.15
19811;BME280;10065;49.632;8.346;2022-09-02T08:09:12;100565.25;;;21.93;47.47
19811;BME280;10065;49.632;8.346;2022-09-02T08:11:42;100579.34;;;22.02;47.25
19811;BME280;10065;49.632;8.346;2022-09-02T08:14:15;100566.41;;;22.10;47.73
19811;BME280;10065;49.632;8.346;2022-09-02T08:16:45;100565.50;;;22.17;47.05
19811;BME280;10065;49.632;8.346;2022-09-02T08:19:13;100569.56;;;22.26;47.46
19811;BME280;10065;49.632;8.346;2022-09-02T08:21:41;100571.78;;;22.35;47.35
19811;BME280;10065;49.632;8.346;2022-09-02T08:24:09;100561.06;;;22.47;47.58
19811;BME280;10065;49.632;8.346;2022-09-02T08:26:37;100567.84;;;22.56;47.50
19811;BME280;10065;49.632;8.346;2022-09-02T08:29:06;100568.28;;;22.71;47.89
19811;BME280;10065;49.632;8.346;2022-09-02T08:31:37;100563.94;;;22.88;46.76
19811;BME280;10065;49.632;8.346;2022-09-02T08:34:05;100563.19;;;23.00;45.70
19811;BME280;10065;49.632;8.346;2022-09-02T08:36:32;100563.72;;;23.08;45.62
19811;BME280;10065;49.632;8.346;2022-09-02T08:39:01;100557.66;;;23.24;45.35
19811;BME280;10065;49.632;8.346;2022-09-02T08:41:32;100553.97;;;23.37;44.99
19811;BME280;10065;49.632;8.346;2022-09-02T08:44:02;100555.91;;;23.48;44.91
19811;BME280;10065;49.632;8.346;2022-09-02T08:46:32;100549.84;;;23.76;42.30
19811;BME280;10065;49.632;8.346;2022-09-02T08:49:03;100542.38;;;23.90;41.04
19811;BME280;10065;49.632;8.346;2022-09-02T08:51:36;100547.69;;;24.08;40.57
19811;BME280;10065;49.632;8.346;2022-09-02T08:54:08;100546.63;;;24.21;41.20
19811;BME280;10065;49.632;8.346;2022-09-02T08:56:37;100545.69;;;24.38;41.09
19811;BME280;10065;49.632;8.346;2022-09-02T08:59:05;100545.31;;;24.58;40.58
19811;BME280;10065;49.632;8.346;2022-09-02T09:01:43;100547.88;;;24.77;40.46
19811;BME280;10065;49.632;8.346;2022-09-02T09:04:25;100542.81;;;24.92;38.77
19811;BME280;10065;49.632;8.346;2022-09-02T09:07:10;100540.28;;;24.90;39.61
19811;BME280;10065;49.632;8.346;2022-09-02T09:09:50;100540.16;;;25.08;39.41
19811;BME280;10065;49.632;8.346;2022-09-02T09:12:33;100534.28;;;25.28;39.23
19811;BME280;10065;49.632;8.346;2022-09-02T09:15:08;100527.84;;;25.46;38.60
19811;BME280;10065;49.632;8.346;2022-09-02T09:17:41;100533.31;;;25.63;38.24
19811;BME280;10065;49.632;8.346;2022-09-02T09:20:16;100518.19;;;25.83;37.65
19811;BME280;10065;49.632;8.346;2022-09-02T09:22:47;100512.66;;;26.12;37.28
19811;BME280;10065;49.632;8.346;2022-09-02T09:25:17;100519.63;;;26.41;36.54
19811;BME280;10065;49.632;8.346;2022-09-02T09:27:45;100512.63;;;26.45;36.61
19811;BME280;10065;49.632;8.346;2022-09-02T09:30:13;100505.44;;;26.39;36.80
19811;BME280;10065;49.632;8.346;2022-09-02T09:32:44;100509.25;;;26.38;35.50
19811;BME280;10065;49.632;8.346;2022-09-02T09:35:14;100508.25;;;26.44;34.47
19811;BME280;10065;49.632;8.346;2022-09-02T09:37:44;100507.63;;;26.37;34.53
19811;BME280;10065;49.632;8.346;2022-09-02T09:40:26;100510.19;;;26.49;34.43
19811;BME280;10065;49.632;8.346;2022-09-02T09:42:57;100506.41;;;26.50;35.02
19811;BME280;10065;49.632;8.346;2022-09-02T09:45:32;100492.56;;;26.51;32.16
19811;BME280;10065;49.632;8.346;2022-09-02T09:48:16;100490.63;;;26.30;32.43
19811;BME280;10065;49.632;8.346;2022-09-02T09:50:47;100484.47;;;26.18;32.11
19811;BME280;10065;49.632;8.346;2022-09-02T09:53:19;100494.13;;;26.09;32.54
19811;BME280;10065;49.632;8.346;2022-09-02T09:55:52;100486.69;;;26.21;32.19
19811;BME280;10065;49.632;8.346;2022-09-02T09:58:22;100486.69;;;26.21;31.26
19811;BME280;10065;49.632;8.346;2022-09-02T10:00:51;100477.34;;;26.12;31.26
19811;BME280;10065;49.632;8.346;2022-09-02T10:03:24;100474.91;;;26.15;31.47
19811;BME280;10065;49.632;8.346;2022-09-02T10:06:16;100478.66;;;26.09;31.14
19811;BME280;10065;49.632;8.346;2022-09-02T10:08:50;100481.06;;;26.44;30.26
19811;BME280;10065;49.632;8.346;2022-09-02T10:11:22;100480.78;;;26.89;30.27
19811;BME280;10065;49.632;8.346;2022-09-02T10:13:58;100473.19;;;27.13;31.55
19811;BME280;10065;49.632;8.346;2022-09-02T10:16:47;100471.41;;;27.29;29.64
19811;BME280;10065;49.632;8.346;2022-09-02T10:19:24;100472.00;;;27.04;29.32
19811;BME280;10065;49.632;8.346;2022-09-02T10:22:17;100470.00;;;26.73;30.05
19811;BME280;10065;49.632;8.346;2022-09-02T10:25:09;100463.28;;;26.80;28.62
19811;BME280;10065;49.632;8.346;2022-09-02T10:27:54;100477.84;;;26.91;29.28
19811;BME280;10065;49.632;8.346;2022-09-02T10:30:30;100474.97;;;26.81;29.78
19811;BME280;10065;49.632;8.346;2022-09-02T10:33:11;100464.75;;;26.44;29.72
19811;BME280;10065;49.632;8.346;2022-09-02T10:35:42;100456.56;;;26.06;30.14
19811;BME280;10065;49.632;8.346;2022-09-02T10:38:26;100464.09;;;25.82;30.98
19811;BME280;10065;49.632;8.346;2022-09-02T10:41:08;100454.38;;;25.69;30.81
19811;BME280;10065;49.632;8.346;2022-09-02T10:44:07;100453.41;;;25.59;31.27
19811;BME280;10065;49.632;8.346;2022-09-02T10:46:43;100447.47;;;25.45;30.89
19811;BME280;10065;49.632;8.346;2022-09-02T10:49:24;100439.66;;;25.32;31.15
19811;BME280;10065;49.632;8.346;2022-09-02T10:52:08;100452.31;;;25.43;31.62
19811;BME280;10065;49.632;8.346;2022-09-02T10:54:46;100449.69;;;25.48;31.26
19811;BME280;10065;49.632;8.346;2022-09-02T10:57:22;100443.03;;;25.39;31.04
19811;BME280;10065;49.632;8.346;2022-09-02T10:59:56;100443.59;;;25.41;30.69
19811;BME280;10065;49.632;8.346;2022-09-02T11:02:29;100431.25;;;25.33;30.45
19811;BME280;10065;49.632;8.346;2022-09-02T11:05:00;100428.22;;;25.30;30.97
19811;BME280;10065;49.632;8.346;2022-09-02T11:07:33;100420.91;;;25.30;31.74
19811;BME280;10065;49.632;8.346;2022-09-02T11:10:07;100416.78;;;25.28;31.01
19811;BME280;10065;49.632;8.346;2022-09-02T11:12:39;100409.50;;;25.17;31.54
19811;BME280;10065;49.632;8.346;2022-09-02T11:15:14;100411.16;;;25.18;31.71
19811;BME280;10065;49.632;8.346;2022-09-02T11:17:47;100417.44;;;25.35;30.74
19811;BME280;10065;49.632;8.346;2022-09-02T11:20:27;100417.59;;;25.28;31.32
19811;BME280;10065;49.632;8.346;2022-09-02T11:23:00;100414.63;;;25.30;31.36
19811;BME280;10065;49.632;8.346;2022-09-02T11:25:38;100414.44;;;26.03;30.47
19811;BME280;10065;49.632;8.346;2022-09-02T11:28:25;100396.56;;;30.05;25.46
19811;BME280;10065;49.632;8.346;2022-09-02T11:31:02;100403.56;;;32.59;22.07
19811;BME280;10065;49.632;8.346;2022-09-02T11:33:47;100397.19;;;32.82;21.93
19811;BME280;10065;49.632;8.346;2022-09-02T11:36:18;100386.66;;;32.04;23.25
19811;BME280;10065;49.632;8.346;2022-09-02T11:38:50;100381.44;;;31.50;23.63
19811;BME280;10065;49.632;8.346;2022-09-02T11:41:29;100382.56;;;31.20;23.83
19811;BME280;10065;49.632;8.346;2022-09-02T11:44:14;100388.72;;;30.52;24.83
19811;BME280;10065;49.632;8.346;2022-09-02T11:47:06;100387.00;;;29.92;25.10
19811;BME280;10065;49.632;8.346;2022-09-02T11:50:02;100380.53;;;29.32;25.61
19811;BME280;10065;49.632;8.346;2022-09-02T11:52:51;100384.25;;;28.55;26.19
19811;BME280;10065;49.632;8.346;2022-09-02T11:55:28;100374.56;;;28.17;27.34
19811;BME280;10065;49.632;8.346;2022-09-02T11:57:59;100381.25;;;27.94;27.66
19811;BME280;10065;49.632;8.346;2022-09-02T12:00:30;100370.91;;;28.06;27.60
19811;BME280;10065;49.632;8.346;2022-09-02T12:03:11;100373.31;;;28.60;27.25
19811;BME280;10065;49.632;8.346;2022-09-02T12:06:09;100382.16;;;29.03;25.82
19811;BME280;10065;49.632;8.346;2022-09-02T12:09:00;100380.69;;;28.50;26.58
19811;BME280;10065;49.632;8.346;2022-09-02T12:11:35;100379.78;;;28.29;26.74
19811;BME280;10065;49.632;8.346;2022-09-02T12:14:07;100368.50;;;28.10;26.74
19811;BME280;10065;49.632;8.346;2022-09-02T12:16:42;100364.53;;;27.81;27.24
19811;BME280;10065;49.632;8.346;2022-09-02T12:19:24;100370.78;;;27.39;28.64
19811;BME280;10065;49.632;8.346;2022-09-02T12:22:25;100376.34;;;27.17;28.78
19811;BME280;10065;49.632;8.346;2022-09-02T12:24:54;100363.75;;;27.11;28.72
19811;BME280;10065;49.632;8.346;2022-09-02T12:27:27;100356.88;;;27.04;28.60
19811;BME280;10065;49.632;8.346;2022-09-02T12:29:58;100350.59;;;26.98;28.65
19811;BME280;10065;49.632;8.346;2022-09-02T12:33:03;100349.44;;;26.94;28.97
19811;BME280;10065;49.632;8.346;2022-09-02T12:35:53;100342.16;;;26.73;29.89
19811;BME280;10065;49.632;8.346;2022-09-02T12:38:34;100346.97;;;26.66;29.62
19811;BME280;10065;49.632;8.346;2022-09-02T12:41:13;100332.63;;;27.02;28.93
19811;BME280;10065;49.632;8.346;2022-09-02T12:44:03;100332.09;;;27.00;29.75
19811;BME280;10065;49.632;8.346;2022-09-02T12:46:51;100335.38;;;27.02;29.43
19811;BME280;10065;49.632;8.346;2022-09-02T12:49:40;100330.50;;;27.04;29.26
19811;BME280;10065;49.632;8.346;2022-09-02T12:52:11;100332.28;;;26.93;29.24
19811;BME280;10065;49.632;8.346;2022-09-02T12:54:43;100314.53;;;26.86;29.25
19811;BME280;10065;49.632;8.346;2022-09-02T12:57:14;100318.19;;;26.70;29.29
19811;BME280;10065;49.632;8.346;2022-09-02T12:59:44;100320.69;;;26.49;29.38
19811;BME280;10065;49.632;8.346;2022-09-02T13:02:21;100314.31;;;26.39;29.71
19811;BME280;10065;49.632;8.346;2022-09-02T13:05:03;100316.19;;;26.33;29.51
19811;BME280;10065;49.632;8.346;2022-09-02T13:08:00;100307.59;;;26.19;29.91
19811;BME280;10065;49.632;8.346;2022-09-02T13:10:54;100304.69;;;26.26;29.54
19811;BME280;10065;49.632;8.346;2022-09-02T13:16:37;100289.88;;;26.17;29.84
19811;BME280;10065;49.632;8.346;2022-09-02T13:19:34;100291.41;;;26.08;30.15
19811;BME280;10065;49.632;8.346;2022-09-02T13:22:39;100281.03;;;26.05;30.15
19811;BME280;10065;49.632;8.346;2022-09-02T13:25:38;100283.47;;;26.01;30.42